createdAt,value
2022-10-02T00:05:02.565Z,83.79
2022-10-02T00:10:14.421Z,83.70
2022-10-02T00:15:25.800Z,83.40
2022-10-02T00:21:16.549Z,83.19
2022-10-02T00:26:31.209Z,83.26
2022-10-02T00:31:58.709Z,83.21
2022-10-02T00:37:08.246Z,84.14
2022-10-02T00:42:21.876Z,84.33
2022-10-02T00:47:43.652Z,84.08
2022-10-02T00:53:06.116Z,84.46
2022-10-02T00:58:32.438Z,85.24
2022-10-02T01:03:42.243Z,84.91
2022-10-02T01:08:43.830Z,84.57
2022-10-02T01:13:46.040Z,84.34
2022-10-02T01:18:48.160Z,84.26
2022-10-02T01:24:04.755Z,85.28
2022-10-02T01:29:06.361Z,84.83
2022-10-02T01:34:08.786Z,83.72
2022-10-02T01:39:11.421Z,85.33
2022-10-02T01:44:14.758Z,85.55
2022-10-02T01:49:34.952Z,84.75
2022-10-02T01:55:01.530Z,85.39
2022-10-02T02:00:25.548Z,84.80
2022-10-02T02:05:32.404Z,84.59
2022-10-02T02:10:44.995Z,84.58
2022-10-02T02:16:06.631Z,84.53
2022-10-02T02:21:36.783Z,84.32
2022-10-02T02:26:39.465Z,85.21
2022-10-02T02:31:49.121Z,84.74
2022-10-02T02:36:57.355Z,84.65
2022-10-02T02:42:04.854Z,84.37
2022-10-02T02:47:12.818Z,83.75
2022-10-02T02:52:20.931Z,84.54
2022-10-02T02:57:31.853Z,84.47
2022-10-02T03:02:33.800Z,84.00
2022-10-02T03:07:35.455Z,84.07
2022-10-02T03:12:53.549Z,85.68
2022-10-02T03:18:18.400Z,86.89
2022-10-02T03:23:37.467Z,86.88
2022-10-02T03:28:57.146Z,87.11
2022-10-02T03:34:01.380Z,87.56
2022-10-02T03:39:24.120Z,87.18
2022-10-02T03:44:26.138Z,86.61
2022-10-02T03:49:27.718Z,87.37
2022-10-02T03:54:33.964Z,86.97
2022-10-02T03:59:44.800Z,85.93
2022-10-02T04:04:55.996Z,86.40
2022-10-02T04:10:03.967Z,86.49
2022-10-02T04:15:16.184Z,88.07
2022-10-02T04:20:26.275Z,88.20
2022-10-02T04:25:32.567Z,88.26
2022-10-02T04:30:34.189Z,87.71
2022-10-02T04:35:48.020Z,87.32
2022-10-02T04:41:12.006Z,87.55
2022-10-02T04:46:25.759Z,87.02
2022-10-02T04:51:40.496Z,87.46
2022-10-02T04:57:12.096Z,87.83
2022-10-02T05:02:32.053Z,86.65
2022-10-02T05:07:48.777Z,86.10
2022-10-02T05:12:52.955Z,86.82
2022-10-02T05:18:17.115Z,86.12
2022-10-02T05:24:17.391Z,86.64
2022-10-02T05:29:27.817Z,86.65
2022-10-02T05:34:55.515Z,86.40
2022-10-02T05:40:52.595Z,86.09
2022-10-02T05:46:02.649Z,85.65
2022-10-02T05:51:16.466Z,85.24
2022-10-02T05:56:29.287Z,84.51
2022-10-02T06:01:36.320Z,84.43
2022-10-02T06:06:49.142Z,83.88
2022-10-02T06:12:12.516Z,83.64
2022-10-02T06:17:22.436Z,84.07
2022-10-02T06:22:33.403Z,84.14
2022-10-02T06:27:46.964Z,83.36
2022-10-02T06:33:13.739Z,83.62
2022-10-02T06:38:33.760Z,83.85
2022-10-02T06:44:13.569Z,83.14
2022-10-02T06:49:33.204Z,82.19
2022-10-02T06:54:48.808Z,82.10
2022-10-02T07:00:14.598Z,80.94
2022-10-02T07:05:48.153Z,80.87
2022-10-02T07:11:34.913Z,79.50
2022-10-02T07:17:08.612Z,77.79
2022-10-02T07:22:45.073Z,77.51
2022-10-02T07:28:03.220Z,77.30
2022-10-02T07:33:26.569Z,76.45
2022-10-02T07:38:48.895Z,74.46
2022-10-02T07:44:02.128Z,74.71
2022-10-02T07:49:24.702Z,73.51
2022-10-02T07:55:13.688Z,71.72
2022-10-02T08:00:16.975Z,70.83
2022-10-02T08:05:19.855Z,72.26
2022-10-02T08:10:26.643Z,73.89
2022-10-02T08:15:34.931Z,74.24
2022-10-02T08:20:40.805Z,73.82
2022-10-02T08:25:55.378Z,73.37
2022-10-02T08:30:58.047Z,73.02
2022-10-02T08:36:17.028Z,72.25
2022-10-02T08:41:30.650Z,71.84
2022-10-02T08:47:03.143Z,71.98
2022-10-02T08:52:39.336Z,70.83
2022-10-02T08:58:01.934Z,71.24
2022-10-02T09:03:09.586Z,69.34
2022-10-02T09:08:29.979Z,69.91
2022-10-02T09:13:56.519Z,68.41
2022-10-02T09:19:03.117Z,66.47
2022-10-02T09:24:07.666Z,62.95
2022-10-02T09:29:34.638Z,64.42
2022-10-02T09:35:06.877Z,64.83
2022-10-02T09:40:26.910Z,64.88
2022-10-02T09:45:40.199Z,66.65
2022-10-02T09:50:49.909Z,65.32
2022-10-02T09:56:26.770Z,65.45
2022-10-02T10:02:05.619Z,65.91
2022-10-02T10:07:15.402Z,65.70
2022-10-02T10:12:35.872Z,64.70
2022-10-02T10:18:05.097Z,64.27
2022-10-02T10:23:31.716Z,65.13
2022-10-02T10:29:07.718Z,64.80
2022-10-02T10:34:21.257Z,65.05
2022-10-02T10:39:31.510Z,65.61
2022-10-02T10:45:08.274Z,65.19
2022-10-02T10:50:46.473Z,65.19
2022-10-02T10:56:28.188Z,65.79
2022-10-02T11:01:58.677Z,66.08
2022-10-02T11:07:57.054Z,66.02
2022-10-02T11:13:14.617Z,65.41
2022-10-02T11:18:46.063Z,63.49
2022-10-02T11:24:35.249Z,63.80
2022-10-02T11:30:15.550Z,62.61
2022-10-02T11:35:23.445Z,60.83
2022-10-02T11:40:44.401Z,60.21
2022-10-02T11:46:23.512Z,60.77
2022-10-02T11:51:55.348Z,61.19
2022-10-02T11:57:08.838Z,60.41
2022-10-02T12:02:42.837Z,62.36
2022-10-02T12:08:03.664Z,63.14
2022-10-02T12:13:24.656Z,63.27
2022-10-02T12:18:32.299Z,64.30
2022-10-02T12:24:19.196Z,65.94
2022-10-02T12:29:51.025Z,66.08
2022-10-02T12:35:26.344Z,72.33
2022-10-02T12:40:57.236Z,73.24
2022-10-02T12:46:34.113Z,75.95
2022-10-02T12:51:57.844Z,79.78
2022-10-02T12:57:51.915Z,78.84
2022-10-02T13:03:41.699Z,79.18
2022-10-02T13:08:43.508Z,80.49
2022-10-02T13:14:42.612Z,79.60
2022-10-02T13:19:49.762Z,79.97
2022-10-02T13:24:58.409Z,80.06
2022-10-02T13:30:06.638Z,79.11
2022-10-02T13:35:46.729Z,79.92
2022-10-02T13:41:13.265Z,79.40
2022-10-02T13:46:54.272Z,79.33
2022-10-02T13:52:09.230Z,79.60
2022-10-02T13:57:35.950Z,79.10
2022-10-02T14:02:40.216Z,77.87
2022-10-02T14:07:44.728Z,77.77
2022-10-02T14:13:10.503Z,78.49
2022-10-02T14:18:21.112Z,77.11
2022-10-02T14:23:47.879Z,76.66
2022-10-02T14:29:08.394Z,76.50
2022-10-02T14:34:19.340Z,76.53
2022-10-02T14:39:31.975Z,76.84
2022-10-02T14:44:56.965Z,76.63
2022-10-02T14:50:36.392Z,76.29
2022-10-02T14:55:41.663Z,76.81
2022-10-02T15:01:01.382Z,76.75
2022-10-02T15:06:08.758Z,77.61
2022-10-02T15:11:27.627Z,77.89
2022-10-02T15:17:04.260Z,78.50
2022-10-02T15:22:19.876Z,79.54
2022-10-02T15:27:42.614Z,80.86
2022-10-02T15:33:03.482Z,79.82
2022-10-02T15:38:41.686Z,81.39
2022-10-02T15:44:00.771Z,81.48
2022-10-02T15:49:18.041Z,81.27
2022-10-02T15:54:44.912Z,81.48
2022-10-02T15:59:52.466Z,83.08
2022-10-02T16:05:13.661Z,82.99
2022-10-02T16:10:21.034Z,83.42
2022-10-02T16:15:31.677Z,84.30
2022-10-02T16:20:48.880Z,84.99
2022-10-02T16:26:24.035Z,85.69
2022-10-02T16:31:48.366Z,85.67
2022-10-02T16:36:55.069Z,85.50
2022-10-02T16:42:02.481Z,85.31
2022-10-02T16:47:18.013Z,86.71
2022-10-02T16:52:47.358Z,85.70
2022-10-02T16:58:19.624Z,86.35
2022-10-02T17:03:28.972Z,85.95
2022-10-02T17:08:45.917Z,86.96
2022-10-02T17:14:14.862Z,87.04
2022-10-02T17:19:31.445Z,86.69
2022-10-02T17:24:40.939Z,86.99
2022-10-02T17:29:53.000Z,87.43
2022-10-02T17:34:58.930Z,87.00
2022-10-02T17:40:24.685Z,86.83
2022-10-02T17:45:42.958Z,86.85
2022-10-02T17:51:24.506Z,86.85
2022-10-02T17:56:51.679Z,87.35
2022-10-02T18:02:12.228Z,87.49
2022-10-02T18:07:16.695Z,87.64
2022-10-02T18:12:42.303Z,88.19
2022-10-02T18:17:50.214Z,87.53
2022-10-02T18:23:03.576Z,86.92
2022-10-02T18:28:31.186Z,87.24
2022-10-02T18:33:40.479Z,87.11
2022-10-02T18:38:49.540Z,87.25
2022-10-02T18:43:51.012Z,86.58
2022-10-02T18:49:20.926Z,86.33
2022-10-02T18:54:59.791Z,86.65
2022-10-02T19:00:19.120Z,86.36
2022-10-02T19:05:27.254Z,86.65
2022-10-02T19:10:31.529Z,86.99
2022-10-02T19:15:33.391Z,87.14
2022-10-02T19:20:48.248Z,86.64
2022-10-02T19:25:52.534Z,87.70
2022-10-02T19:31:03.902Z,86.67
2022-10-02T19:36:06.323Z,86.65
2022-10-02T19:41:15.381Z,86.29
2022-10-02T19:46:17.274Z,85.79
2022-10-02T19:51:21.214Z,86.57
2022-10-02T19:56:53.441Z,86.02
2022-10-02T20:02:00.308Z,85.63
2022-10-02T20:07:02.203Z,86.25
2022-10-02T20:12:28.563Z,86.38
2022-10-02T20:17:31.326Z,86.35
2022-10-02T20:22:41.789Z,86.87
2022-10-02T20:27:52.653Z,86.70
2022-10-02T20:33:01.766Z,87.13
2022-10-02T20:38:16.196Z,86.51
2022-10-02T20:43:46.956Z,86.58
2022-10-02T20:49:08.958Z,86.56
2022-10-02T20:54:23.547Z,86.88
2022-10-02T21:00:03.298Z,85.99
2022-10-02T21:05:40.049Z,86.87
2022-10-02T21:11:00.016Z,87.09
2022-10-02T21:16:16.604Z,86.96
2022-10-02T21:21:55.902Z,87.80
2022-10-02T21:27:13.049Z,87.16
2022-10-02T21:32:32.657Z,87.82
2022-10-02T21:38:05.104Z,88.56
2022-10-02T21:43:37.160Z,88.45
2022-10-02T21:49:15.761Z,88.99
2022-10-02T21:54:54.593Z,89.16
2022-10-02T21:59:56.076Z,89.24
2022-10-02T22:05:22.394Z,89.02
2022-10-02T22:11:16.704Z,90.75
2022-10-02T22:16:45.436Z,89.25
2022-10-02T22:22:15.764Z,89.02
2022-10-02T22:27:42.251Z,89.36
2022-10-02T22:33:26.597Z,89.52
2022-10-02T22:38:43.581Z,89.75
2022-10-02T22:43:48.320Z,90.59
2022-10-02T22:49:27.223Z,89.51
2022-10-02T22:54:51.560Z,88.54
2022-10-02T23:00:03.740Z,89.09
2022-10-02T23:05:14.278Z,89.01
2022-10-02T23:10:33.191Z,88.15
2022-10-02T23:16:07.980Z,88.03
2022-10-02T23:21:33.321Z,89.02
2022-10-02T23:26:56.252Z,89.62
2022-10-02T23:32:19.085Z,87.63
2022-10-02T23:37:39.810Z,88.09
2022-10-02T23:43:04.946Z,88.52
2022-10-02T23:48:11.857Z,87.66
2022-10-02T23:53:54.348Z,88.75
2022-10-02T23:59:26.204Z,88.67
